sensor_id;sensor_type;location;lat;lon;timestamp;P1;durP1;ratioP1;P2;durP2;ratioP2
19651;SDS011;9974;52.146;14.668;2023-02-07T00:01:26;41.00;;;22.43;;
19651;SDS011;9974;52.146;14.668;2023-02-07T00:03:52;39.33;;;21.80;;
19651;SDS011;9974;52.146;14.668;2023-02-07T00:06:22;35.20;;;22.70;;
19651;SDS011;9974;52.146;14.668;2023-02-07T00:08:53;39.63;;;21.57;;
19651;SDS011;9974;52.146;14.668;2023-02-07T00:11:20;36.80;;;22.07;;
19651;SDS011;9974;52.146;14.668;2023-02-07T00:13:48;36.90;;;21.73;;
19651;SDS011;9974;52.146;14.668;2023-02-07T00:16:15;37.13;;;22.03;;
19651;SDS011;9974;52.146;14.668;2023-02-07T00:18:41;32.27;;;21.77;;
19651;SDS011;9974;52.146;14.668;2023-02-07T00:21:09;36.97;;;22.43;;
19651;SDS011;9974;52.146;14.668;2023-02-07T00:23:39;40.30;;;23.20;;
19651;SDS011;9974;52.146;14.668;2023-02-07T00:26:06;37.23;;;22.97;;
19651;SDS011;9974;52.146;14.668;2023-02-07T00:28:33;40.90;;;23.77;;
19651;SDS011;9974;52.146;14.668;2023-02-07T00:31:10;37.50;;;23.00;;
19651;SDS011;9974;52.146;14.668;2023-02-07T00:33:41;38.37;;;23.67;;
19651;SDS011;9974;52.146;14.668;2023-02-07T00:36:09;41.13;;;23.97;;
19651;SDS011;9974;52.146;14.668;2023-02-07T00:38:37;40.90;;;22.93;;
19651;SDS011;9974;52.146;14.668;2023-02-07T00:41:03;40.10;;;23.90;;
19651;SDS011;9974;52.146;14.668;2023-02-07T00:43:29;33.90;;;22.67;;
19651;SDS011;9974;52.146;14.668;2023-02-07T00:46:00;34.27;;;22.33;;
19651;SDS011;9974;52.146;14.668;2023-02-07T00:48:27;37.07;;;21.37;;
19651;SDS011;9974;52.146;14.668;2023-02-07T00:50:54;39.17;;;23.47;;
19651;SDS011;9974;52.146;14.668;2023-02-07T00:53:20;36.97;;;22.90;;
19651;SDS011;9974;52.146;14.668;2023-02-07T00:55:46;39.57;;;23.57;;
19651;SDS011;9974;52.146;14.668;2023-02-07T00:58:12;38.17;;;23.70;;
19651;SDS011;9974;52.146;14.668;2023-02-07T01:00:38;41.87;;;22.90;;
19651;SDS011;9974;52.146;14.668;2023-02-07T01:03:04;42.13;;;22.67;;
19651;SDS011;9974;52.146;14.668;2023-02-07T01:05:29;42.03;;;23.30;;
19651;SDS011;9974;52.146;14.668;2023-02-07T01:07:55;43.77;;;24.67;;
19651;SDS011;9974;52.146;14.668;2023-02-07T01:10:21;40.73;;;22.77;;
19651;SDS011;9974;52.146;14.668;2023-02-07T01:12:48;40.80;;;23.83;;
19651;SDS011;9974;52.146;14.668;2023-02-07T01:15:15;38.00;;;23.77;;
19651;SDS011;9974;52.146;14.668;2023-02-07T01:17:41;35.40;;;22.30;;
19651;SDS011;9974;52.146;14.668;2023-02-07T01:20:07;38.43;;;23.87;;
19651;SDS011;9974;52.146;14.668;2023-02-07T01:22:35;34.23;;;21.90;;
19651;SDS011;9974;52.146;14.668;2023-02-07T01:25:02;37.13;;;22.37;;
19651;SDS011;9974;52.146;14.668;2023-02-07T01:27:29;40.67;;;22.90;;
19651;SDS011;9974;52.146;14.668;2023-02-07T01:29:55;35.47;;;22.47;;
19651;SDS011;9974;52.146;14.668;2023-02-07T01:32:21;35.97;;;21.87;;
19651;SDS011;9974;52.146;14.668;2023-02-07T01:34:47;33.03;;;21.80;;
19651;SDS011;9974;52.146;14.668;2023-02-07T01:37:13;32.10;;;20.57;;
19651;SDS011;9974;52.146;14.668;2023-02-07T01:39:39;35.47;;;22.73;;
19651;SDS011;9974;52.146;14.668;2023-02-07T01:42:05;36.03;;;22.33;;
19651;SDS011;9974;52.146;14.668;2023-02-07T01:47:02;40.47;;;24.03;;
19651;SDS011;9974;52.146;14.668;2023-02-07T01:49:30;41.63;;;24.07;;
19651;SDS011;9974;52.146;14.668;2023-02-07T01:52:09;34.87;;;23.47;;
19651;SDS011;9974;52.146;14.668;2023-02-07T01:54:37;38.83;;;22.87;;
19651;SDS011;9974;52.146;14.668;2023-02-07T01:57:06;42.20;;;24.73;;
19651;SDS011;9974;52.146;14.668;2023-02-07T01:59:37;37.13;;;23.10;;
19651;SDS011;9974;52.146;14.668;2023-02-07T02:02:07;38.00;;;23.73;;
19651;SDS011;9974;52.146;14.668;2023-02-07T02:04:37;42.07;;;24.77;;
19651;SDS011;9974;52.146;14.668;2023-02-07T02:07:03;38.47;;;23.40;;
19651;SDS011;9974;52.146;14.668;2023-02-07T02:09:30;38.30;;;23.13;;
19651;SDS011;9974;52.146;14.668;2023-02-07T02:18:00;43.77;;;25.37;;
19651;SDS011;9974;52.146;14.668;2023-02-07T02:20:50;40.27;;;24.77;;
19651;SDS011;9974;52.146;14.668;2023-02-07T02:23:38;35.00;;;23.37;;
19651;SDS011;9974;52.146;14.668;2023-02-07T02:26:38;41.30;;;25.23;;
19651;SDS011;9974;52.146;14.668;2023-02-07T02:29:23;44.10;;;25.17;;
19651;SDS011;9974;52.146;14.668;2023-02-07T02:41:04;40.10;;;24.07;;
19651;SDS011;9974;52.146;14.668;2023-02-07T02:43:43;47.37;;;24.73;;
19651;SDS011;9974;52.146;14.668;2023-02-07T02:46:15;40.67;;;23.77;;
19651;SDS011;9974;52.146;14.668;2023-02-07T02:48:45;37.50;;;23.40;;
19651;SDS011;9974;52.146;14.668;2023-02-07T02:51:11;46.37;;;24.80;;
19651;SDS011;9974;52.146;14.668;2023-02-07T02:53:37;41.17;;;23.07;;
19651;SDS011;9974;52.146;14.668;2023-02-07T03:02:09;37.10;;;23.40;;
19651;SDS011;9974;52.146;14.668;2023-02-07T03:05:17;36.23;;;24.40;;
19651;SDS011;9974;52.146;14.668;2023-02-07T03:18:08;42.57;;;24.00;;
19651;SDS011;9974;52.146;14.668;2023-02-07T03:20:44;40.50;;;22.83;;
19651;SDS011;9974;52.146;14.668;2023-02-07T03:23:18;38.83;;;23.33;;
19651;SDS011;9974;52.146;14.668;2023-02-07T03:25:44;39.40;;;24.10;;
19651;SDS011;9974;52.146;14.668;2023-02-07T03:28:13;46.30;;;24.87;;
19651;SDS011;9974;52.146;14.668;2023-02-07T03:30:42;39.40;;;24.33;;
19651;SDS011;9974;52.146;14.668;2023-02-07T03:33:13;38.30;;;23.77;;
19651;SDS011;9974;52.146;14.668;2023-02-07T03:35:41;37.93;;;24.10;;
19651;SDS011;9974;52.146;14.668;2023-02-07T03:38:11;38.50;;;23.27;;
19651;SDS011;9974;52.146;14.668;2023-02-07T03:40:39;37.07;;;22.63;;
19651;SDS011;9974;52.146;14.668;2023-02-07T03:43:15;42.30;;;23.07;;
19651;SDS011;9974;52.146;14.668;2023-02-07T03:45:51;35.70;;;22.17;;
19651;SDS011;9974;52.146;14.668;2023-02-07T03:48:17;38.10;;;23.50;;
19651;SDS011;9974;52.146;14.668;2023-02-07T03:50:43;40.37;;;24.17;;
19651;SDS011;9974;52.146;14.668;2023-02-07T03:53:11;38.13;;;23.37;;
19651;SDS011;9974;52.146;14.668;2023-02-07T03:55:37;37.27;;;23.43;;
19651;SDS011;9974;52.146;14.668;2023-02-07T03:58:03;44.20;;;25.23;;
19651;SDS011;9974;52.146;14.668;2023-02-07T04:00:31;38.37;;;24.47;;
19651;SDS011;9974;52.146;14.668;2023-02-07T04:02:57;38.10;;;24.60;;
19651;SDS011;9974;52.146;14.668;2023-02-07T04:05:23;36.70;;;23.57;;
19651;SDS011;9974;52.146;14.668;2023-02-07T04:07:49;39.77;;;23.17;;
19651;SDS011;9974;52.146;14.668;2023-02-07T04:10:15;42.30;;;24.33;;
19651;SDS011;9974;52.146;14.668;2023-02-07T04:12:41;41.07;;;24.80;;
19651;SDS011;9974;52.146;14.668;2023-02-07T04:15:08;40.37;;;25.60;;
19651;SDS011;9974;52.146;14.668;2023-02-07T04:17:34;40.27;;;24.47;;
19651;SDS011;9974;52.146;14.668;2023-02-07T04:20:00;40.10;;;25.50;;
19651;SDS011;9974;52.146;14.668;2023-02-07T04:22:27;44.10;;;25.60;;
19651;SDS011;9974;52.146;14.668;2023-02-07T04:24:53;47.17;;;28.40;;
19651;SDS011;9974;52.146;14.668;2023-02-07T04:27:20;44.23;;;25.60;;
19651;SDS011;9974;52.146;14.668;2023-02-07T04:29:45;41.53;;;25.43;;
19651;SDS011;9974;52.146;14.668;2023-02-07T04:32:11;45.23;;;25.50;;
19651;SDS011;9974;52.146;14.668;2023-02-07T04:34:37;42.37;;;25.07;;
19651;SDS011;9974;52.146;14.668;2023-02-07T04:37:03;42.83;;;24.90;;
19651;SDS011;9974;52.146;14.668;2023-02-07T04:39:29;46.53;;;26.00;;
19651;SDS011;9974;52.146;14.668;2023-02-07T04:41:55;48.30;;;25.37;;
19651;SDS011;9974;52.146;14.668;2023-02-07T04:44:21;45.40;;;25.10;;
19651;SDS011;9974;52.146;14.668;2023-02-07T04:46:47;39.77;;;23.27;;
19651;SDS011;9974;52.146;14.668;2023-02-07T04:49:13;40.10;;;25.17;;
19651;SDS011;9974;52.146;14.668;2023-02-07T04:51:39;41.73;;;24.47;;
19651;SDS011;9974;52.146;14.668;2023-02-07T04:54:05;38.43;;;23.33;;
19651;SDS011;9974;52.146;14.668;2023-02-07T04:56:31;43.53;;;24.70;;
19651;SDS011;9974;52.146;14.668;2023-02-07T04:58:57;42.67;;;24.37;;
19651;SDS011;9974;52.146;14.668;2023-02-07T05:01:23;40.67;;;24.50;;
19651;SDS011;9974;52.146;14.668;2023-02-07T05:03:49;39.60;;;23.93;;
19651;SDS011;9974;52.146;14.668;2023-02-07T05:06:15;38.60;;;23.20;;
19651;SDS011;9974;52.146;14.668;2023-02-07T05:08:41;38.17;;;23.03;;
19651;SDS011;9974;52.146;14.668;2023-02-07T05:11:07;40.17;;;23.70;;
19651;SDS011;9974;52.146;14.668;2023-02-07T05:13:34;42.57;;;25.23;;
19651;SDS011;9974;52.146;14.668;2023-02-07T05:16:03;42.67;;;25.43;;
19651;SDS011;9974;52.146;14.668;2023-02-07T05:18:29;38.83;;;23.40;;
19651;SDS011;9974;52.146;14.668;2023-02-07T05:20:56;41.43;;;24.10;;
19651;SDS011;9974;52.146;14.668;2023-02-07T05:23:22;41.53;;;24.50;;
19651;SDS011;9974;52.146;14.668;2023-02-07T05:25:48;41.50;;;24.13;;
19651;SDS011;9974;52.146;14.668;2023-02-07T05:28:14;39.27;;;22.40;;
19651;SDS011;9974;52.146;14.668;2023-02-07T05:30:40;42.07;;;24.83;;
19651;SDS011;9974;52.146;14.668;2023-02-07T05:33:06;45.03;;;24.90;;
19651;SDS011;9974;52.146;14.668;2023-02-07T05:35:34;39.17;;;23.87;;
19651;SDS011;9974;52.146;14.668;2023-02-07T05:38:02;39.73;;;23.80;;
19651;SDS011;9974;52.146;14.668;2023-02-07T05:40:31;53.57;;;23.30;;
19651;SDS011;9974;52.146;14.668;2023-02-07T05:42:57;42.13;;;22.93;;
19651;SDS011;9974;52.146;14.668;2023-02-07T05:45:23;49.90;;;24.40;;
19651;SDS011;9974;52.146;14.668;2023-02-07T05:47:49;36.90;;;23.10;;
19651;SDS011;9974;52.146;14.668;2023-02-07T05:50:16;40.80;;;22.97;;
19651;SDS011;9974;52.146;14.668;2023-02-07T05:52:42;37.93;;;22.63;;
19651;SDS011;9974;52.146;14.668;2023-02-07T05:55:08;45.10;;;23.53;;
19651;SDS011;9974;52.146;14.668;2023-02-07T05:57:36;39.50;;;22.50;;
19651;SDS011;9974;52.146;14.668;2023-02-07T06:00:06;39.30;;;22.30;;
19651;SDS011;9974;52.146;14.668;2023-02-07T06:02:40;39.73;;;23.57;;
19651;SDS011;9974;52.146;14.668;2023-02-07T06:05:08;36.77;;;23.03;;
19651;SDS011;9974;52.146;14.668;2023-02-07T06:07:38;36.37;;;22.50;;
19651;SDS011;9974;52.146;14.668;2023-02-07T06:10:04;36.93;;;22.73;;
19651;SDS011;9974;52.146;14.668;2023-02-07T06:12:31;42.00;;;24.63;;
19651;SDS011;9974;52.146;14.668;2023-02-07T06:14:57;40.53;;;22.07;;
19651;SDS011;9974;52.146;14.668;2023-02-07T06:17:23;39.47;;;22.23;;
19651;SDS011;9974;52.146;14.668;2023-02-07T06:19:50;40.77;;;23.87;;
19651;SDS011;9974;52.146;14.668;2023-02-07T06:22:16;41.00;;;23.03;;
19651;SDS011;9974;52.146;14.668;2023-02-07T06:24:42;39.73;;;23.10;;
19651;SDS011;9974;52.146;14.668;2023-02-07T06:27:08;34.63;;;20.80;;
19651;SDS011;9974;52.146;14.668;2023-02-07T06:29:34;37.53;;;22.67;;
19651;SDS011;9974;52.146;14.668;2023-02-07T06:32:00;38.53;;;23.50;;
19651;SDS011;9974;52.146;14.668;2023-02-07T06:34:26;38.30;;;21.60;;
19651;SDS011;9974;52.146;14.668;2023-02-07T06:36:52;41.83;;;23.80;;
19651;SDS011;9974;52.146;14.668;2023-02-07T06:39:18;37.43;;;21.80;;
19651;SDS011;9974;52.146;14.668;2023-02-07T06:41:44;43.67;;;23.60;;
19651;SDS011;9974;52.146;14.668;2023-02-07T06:44:10;45.17;;;23.30;;
19651;SDS011;9974;52.146;14.668;2023-02-07T06:46:36;34.83;;;22.60;;
19651;SDS011;9974;52.146;14.668;2023-02-07T06:49:02;38.40;;;22.80;;
19651;SDS011;9974;52.146;14.668;2023-02-07T06:51:28;43.67;;;23.57;;
19651;SDS011;9974;52.146;14.668;2023-02-07T06:53:54;38.40;;;21.67;;
19651;SDS011;9974;52.146;14.668;2023-02-07T06:56:20;34.30;;;20.93;;
19651;SDS011;9974;52.146;14.668;2023-02-07T06:58:46;38.63;;;23.80;;
19651;SDS011;9974;52.146;14.668;2023-02-07T07:01:12;37.70;;;21.90;;
19651;SDS011;9974;52.146;14.668;2023-02-07T07:03:43;42.43;;;22.67;;
19651;SDS011;9974;52.146;14.668;2023-02-07T07:06:12;34.83;;;21.10;;
19651;SDS011;9974;52.146;14.668;2023-02-07T07:08:38;39.20;;;22.53;;
19651;SDS011;9974;52.146;14.668;2023-02-07T07:11:04;43.50;;;23.37;;
19651;SDS011;9974;52.146;14.668;2023-02-07T07:13:31;41.20;;;23.10;;
19651;SDS011;9974;52.146;14.668;2023-02-07T07:15:57;34.50;;;21.07;;
19651;SDS011;9974;52.146;14.668;2023-02-07T07:18:23;37.60;;;22.67;;
19651;SDS011;9974;52.146;14.668;2023-02-07T07:20:52;34.67;;;21.80;;
19651;SDS011;9974;52.146;14.668;2023-02-07T07:23:19;38.33;;;23.33;;
19651;SDS011;9974;52.146;14.668;2023-02-07T07:25:45;39.53;;;21.90;;
19651;SDS011;9974;52.146;14.668;2023-02-07T07:28:11;37.50;;;22.43;;
19651;SDS011;9974;52.146;14.668;2023-02-07T07:30:37;41.83;;;23.80;;
19651;SDS011;9974;52.146;14.668;2023-02-07T07:33:03;38.80;;;23.93;;
19651;SDS011;9974;52.146;14.668;2023-02-07T07:35:29;41.67;;;26.43;;
19651;SDS011;9974;52.146;14.668;2023-02-07T07:37:55;46.77;;;27.07;;
19651;SDS011;9974;52.146;14.668;2023-02-07T07:40:21;52.97;;;26.07;;
19651;SDS011;9974;52.146;14.668;2023-02-07T07:42:47;42.80;;;26.17;;
19651;SDS011;9974;52.146;14.668;2023-02-07T07:45:14;45.57;;;25.20;;
19651;SDS011;9974;52.146;14.668;2023-02-07T07:47:40;43.27;;;25.90;;
19651;SDS011;9974;52.146;14.668;2023-02-07T07:50:06;44.07;;;26.43;;
19651;SDS011;9974;52.146;14.668;2023-02-07T07:52:32;47.07;;;27.33;;
19651;SDS011;9974;52.146;14.668;2023-02-07T07:54:59;41.93;;;24.80;;
19651;SDS011;9974;52.146;14.668;2023-02-07T07:57:25;44.80;;;26.57;;
19651;SDS011;9974;52.146;14.668;2023-02-07T07:59:53;43.03;;;26.30;;
19651;SDS011;9974;52.146;14.668;2023-02-07T08:02:19;42.73;;;26.53;;
19651;SDS011;9974;52.146;14.668;2023-02-07T08:04:45;40.53;;;25.53;;
19651;SDS011;9974;52.146;14.668;2023-02-07T08:07:12;45.23;;;25.63;;
19651;SDS011;9974;52.146;14.668;2023-02-07T08:09:38;45.67;;;26.63;;
19651;SDS011;9974;52.146;14.668;2023-02-07T08:12:04;45.03;;;24.37;;
19651;SDS011;9974;52.146;14.668;2023-02-07T08:14:30;41.27;;;24.57;;
19651;SDS011;9974;52.146;14.668;2023-02-07T08:16:56;40.73;;;25.50;;
19651;SDS011;9974;52.146;14.668;2023-02-07T08:19:22;42.93;;;25.17;;
19651;SDS011;9974;52.146;14.668;2023-02-07T08:21:48;41.13;;;24.73;;
19651;SDS011;9974;52.146;14.668;2023-02-07T08:24:14;43.17;;;24.27;;
19651;SDS011;9974;52.146;14.668;2023-02-07T08:26:40;47.00;;;23.60;;
19651;SDS011;9974;52.146;14.668;2023-02-07T08:29:06;48.10;;;27.20;;
19651;SDS011;9974;52.146;14.668;2023-02-07T08:31:32;44.47;;;24.90;;
19651;SDS011;9974;52.146;14.668;2023-02-07T08:33:58;38.07;;;25.20;;
19651;SDS011;9974;52.146;14.668;2023-02-07T08:36:25;38.40;;;25.67;;
19651;SDS011;9974;52.146;14.668;2023-02-07T08:38:51;42.57;;;24.33;;
19651;SDS011;9974;52.146;14.668;2023-02-07T08:41:17;64.17;;;39.87;;
19651;SDS011;9974;52.146;14.668;2023-02-07T08:43:43;50.00;;;31.77;;
19651;SDS011;9974;52.146;14.668;2023-02-07T08:46:08;35.73;;;20.37;;
19651;SDS011;9974;52.146;14.668;2023-02-07T08:48:34;36.23;;;22.83;;
19651;SDS011;9974;52.146;14.668;2023-02-07T08:51:04;29.50;;;18.80;;
19651;SDS011;9974;52.146;14.668;2023-02-07T08:53:31;30.17;;;17.52;;
19651;SDS011;9974;52.146;14.668;2023-02-07T08:55:57;33.00;;;19.52;;
19651;SDS011;9974;52.146;14.668;2023-02-07T08:58:23;31.00;;;18.65;;
19651;SDS011;9974;52.146;14.668;2023-02-07T09:00:49;28.15;;;16.88;;
19651;SDS011;9974;52.146;14.668;2023-02-07T09:03:15;28.85;;;18.02;;
19651;SDS011;9974;52.146;14.668;2023-02-07T09:05:41;27.33;;;16.80;;
19651;SDS011;9974;52.146;14.668;2023-02-07T09:08:07;30.48;;;18.42;;
19651;SDS011;9974;52.146;14.668;2023-02-07T09:10:33;25.00;;;16.20;;
19651;SDS011;9974;52.146;14.668;2023-02-07T09:12:59;25.65;;;16.42;;
19651;SDS011;9974;52.146;14.668;2023-02-07T09:15:25;27.45;;;18.15;;
19651;SDS011;9974;52.146;14.668;2023-02-07T09:17:51;28.30;;;15.70;;
19651;SDS011;9974;52.146;14.668;2023-02-07T09:20:17;27.08;;;16.58;;
19651;SDS011;9974;52.146;14.668;2023-02-07T09:22:43;26.25;;;17.52;;
19651;SDS011;9974;52.146;14.668;2023-02-07T09:25:27;25.02;;;16.77;;
19651;SDS011;9974;52.146;14.668;2023-02-07T09:27:53;31.90;;;17.70;;
19651;SDS011;9974;52.146;14.668;2023-02-07T09:30:20;25.42;;;17.50;;
19651;SDS011;9974;52.146;14.668;2023-02-07T09:32:46;27.45;;;18.48;;
19651;SDS011;9974;52.146;14.668;2023-02-07T09:35:12;34.65;;;19.85;;
19651;SDS011;9974;52.146;14.668;2023-02-07T09:37:38;29.40;;;20.85;;
19651;SDS011;9974;52.146;14.668;2023-02-07T09:40:04;36.13;;;23.17;;
19651;SDS011;9974;52.146;14.668;2023-02-07T09:42:35;35.22;;;22.95;;
19651;SDS011;9974;52.146;14.668;2023-02-07T09:45:21;38.13;;;24.30;;
19651;SDS011;9974;52.146;14.668;2023-02-07T09:47:51;43.53;;;23.98;;
19651;SDS011;9974;52.146;14.668;2023-02-07T09:50:30;41.78;;;23.58;;
19651;SDS011;9974;52.146;14.668;2023-02-07T09:53:05;32.90;;;21.15;;
19651;SDS011;9974;52.146;14.668;2023-02-07T09:55:42;34.50;;;23.00;;
19651;SDS011;9974;52.146;14.668;2023-02-07T09:58:15;36.45;;;22.27;;
19651;SDS011;9974;52.146;14.668;2023-02-07T10:00:46;37.03;;;21.98;;
19651;SDS011;9974;52.146;14.668;2023-02-07T10:03:24;31.17;;;20.52;;
19651;SDS011;9974;52.146;14.668;2023-02-07T10:05:51;28.70;;;19.63;;
19651;SDS011;9974;52.146;14.668;2023-02-07T10:08:23;34.17;;;20.92;;
19651;SDS011;9974;52.146;14.668;2023-02-07T10:16:28;40.65;;;23.55;;
19651;SDS011;9974;52.146;14.668;2023-02-07T10:22:23;37.45;;;20.00;;
19651;SDS011;9974;52.146;14.668;2023-02-07T10:25:08;33.55;;;20.52;;
19651;SDS011;9974;52.146;14.668;2023-02-07T10:28:19;31.20;;;19.25;;
19651;SDS011;9974;52.146;14.668;2023-02-07T10:30:55;32.60;;;20.30;;
19651;SDS011;9974;52.146;14.668;2023-02-07T10:33:28;31.70;;;18.63;;
19651;SDS011;9974;52.146;14.668;2023-02-07T10:36:00;32.07;;;20.07;;
19651;SDS011;9974;52.146;14.668;2023-02-07T10:38:32;28.23;;;16.90;;
19651;SDS011;9974;52.146;14.668;2023-02-07T10:43:59;25.03;;;16.87;;
19651;SDS011;9974;52.146;14.668;2023-02-07T10:46:25;27.57;;;16.43;;
19651;SDS011;9974;52.146;14.668;2023-02-07T10:48:53;25.30;;;16.97;;
19651;SDS011;9974;52.146;14.668;2023-02-07T10:54:08;22.17;;;13.57;;
19651;SDS011;9974;52.146;14.668;2023-02-07T10:56:44;23.67;;;13.57;;
19651;SDS011;9974;52.146;14.668;2023-02-07T10:59:31;22.67;;;14.10;;
19651;SDS011;9974;52.146;14.668;2023-02-07T11:04:55;23.30;;;13.20;;
19651;SDS011;9974;52.146;14.668;2023-02-07T11:07:25;20.13;;;11.87;;
19651;SDS011;9974;52.146;14.668;2023-02-07T11:10:11;21.33;;;13.13;;
19651;SDS011;9974;52.146;14.668;2023-02-07T11:12:44;23.73;;;14.10;;
19651;SDS011;9974;52.146;14.668;2023-02-07T11:15:16;22.40;;;14.13;;
19651;SDS011;9974;52.146;14.668;2023-02-07T11:17:47;21.67;;;14.10;;
19651;SDS011;9974;52.146;14.668;2023-02-07T11:20:23;29.33;;;15.83;;
19651;SDS011;9974;52.146;14.668;2023-02-07T11:22:54;23.40;;;14.50;;
19651;SDS011;9974;52.146;14.668;2023-02-07T11:25:31;23.47;;;14.60;;
19651;SDS011;9974;52.146;14.668;2023-02-07T11:28:00;24.90;;;15.40;;
19651;SDS011;9974;52.146;14.668;2023-02-07T11:30:26;26.87;;;15.10;;
19651;SDS011;9974;52.146;14.668;2023-02-07T11:32:57;26.58;;;15.77;;
19651;SDS011;9974;52.146;14.668;2023-02-07T11:35:27;25.03;;;15.47;;
19651;SDS011;9974;52.146;14.668;2023-02-07T11:37:58;23.48;;;13.65;;
19651;SDS011;9974;52.146;14.668;2023-02-07T11:43:08;22.25;;;14.40;;
19651;SDS011;9974;52.146;14.668;2023-02-07T11:45:42;25.23;;;13.70;;
19651;SDS011;9974;52.146;14.668;2023-02-07T11:48:18;24.10;;;13.57;;
19651;SDS011;9974;52.146;14.668;2023-02-07T11:50:48;23.70;;;13.50;;
19651;SDS011;9974;52.146;14.668;2023-02-07T11:53:23;24.27;;;14.37;;
19651;SDS011;9974;52.146;14.668;2023-02-07T11:55:54;25.58;;;13.35;;
19651;SDS011;9974;52.146;14.668;2023-02-07T11:58:31;23.20;;;13.40;;
19651;SDS011;9974;52.146;14.668;2023-02-07T12:01:00;27.43;;;14.57;;
19651;SDS011;9974;52.146;14.668;2023-02-07T12:03:30;22.13;;;14.23;;
19651;SDS011;9974;52.146;14.668;2023-02-07T12:06:13;18.90;;;11.87;;
19651;SDS011;9974;52.146;14.668;2023-02-07T12:08:43;23.23;;;13.03;;
19651;SDS011;9974;52.146;14.668;2023-02-07T12:11:20;23.43;;;13.90;;
19651;SDS011;9974;52.146;14.668;2023-02-07T12:14:10;21.23;;;12.50;;
19651;SDS011;9974;52.146;14.668;2023-02-07T12:16:45;23.10;;;13.80;;
19651;SDS011;9974;52.146;14.668;2023-02-07T12:19:18;21.13;;;11.77;;
19651;SDS011;9974;52.146;14.668;2023-02-07T12:24:20;20.20;;;11.67;;
19651;SDS011;9974;52.146;14.668;2023-02-07T12:27:09;23.97;;;12.57;;
19651;SDS011;9974;52.146;14.668;2023-02-07T12:29:47;21.47;;;12.90;;
19651;SDS011;9974;52.146;14.668;2023-02-07T12:35:26;21.23;;;13.10;;
19651;SDS011;9974;52.146;14.668;2023-02-07T12:38:21;20.93;;;12.70;;
19651;SDS011;9974;52.146;14.668;2023-02-07T12:43:38;20.77;;;12.93;;
19651;SDS011;9974;52.146;14.668;2023-02-07T12:49:20;21.77;;;12.65;;
19651;SDS011;9974;52.146;14.668;2023-02-07T12:55:02;18.33;;;11.23;;
19651;SDS011;9974;52.146;14.668;2023-02-07T12:57:48;22.60;;;12.85;;
19651;SDS011;9974;52.146;14.668;2023-02-07T13:00:30;19.30;;;11.90;;
19651;SDS011;9974;52.146;14.668;2023-02-07T13:08:57;19.35;;;11.88;;
19651;SDS011;9974;52.146;14.668;2023-02-07T13:12:09;20.02;;;11.23;;
19651;SDS011;9974;52.146;14.668;2023-02-07T13:14:56;19.73;;;11.32;;
19651;SDS011;9974;52.146;14.668;2023-02-07T13:17:48;21.83;;;13.23;;
19651;SDS011;9974;52.146;14.668;2023-02-07T13:20:42;18.02;;;10.65;;
19651;SDS011;9974;52.146;14.668;2023-02-07T13:23:17;22.05;;;11.90;;
19651;SDS011;9974;52.146;14.668;2023-02-07T13:25:47;16.35;;;11.18;;
19651;SDS011;9974;52.146;14.668;2023-02-07T13:31:15;20.00;;;11.05;;
19651;SDS011;9974;52.146;14.668;2023-02-07T13:33:47;18.60;;;10.75;;
19651;SDS011;9974;52.146;14.668;2023-02-07T13:39:13;16.45;;;11.20;;
19651;SDS011;9974;52.146;14.668;2023-02-07T13:47:32;18.90;;;11.05;;
19651;SDS011;9974;52.146;14.668;2023-02-07T13:55:50;14.55;;;10.80;;
19651;SDS011;9974;52.146;14.668;2023-02-07T14:01:16;15.02;;;10.23;;
19651;SDS011;9974;52.146;14.668;2023-02-07T14:04:04;15.88;;;10.45;;
19651;SDS011;9974;52.146;14.668;2023-02-07T14:06:36;17.23;;;11.45;;
19651;SDS011;9974;52.146;14.668;2023-02-07T14:09:21;18.45;;;10.85;;
19651;SDS011;9974;52.146;14.668;2023-02-07T14:11:58;18.98;;;11.48;;
19651;SDS011;9974;52.146;14.668;2023-02-07T14:14:45;18.23;;;11.18;;
19651;SDS011;9974;52.146;14.668;2023-02-07T14:17:12;18.05;;;11.55;;
19651;SDS011;9974;52.146;14.668;2023-02-07T14:20:04;19.20;;;11.48;;
19651;SDS011;9974;52.146;14.668;2023-02-07T14:23:14;16.17;;;10.88;;
19651;SDS011;9974;52.146;14.668;2023-02-07T14:25:43;25.27;;;11.10;;
19651;SDS011;9974;52.146;14.668;2023-02-07T14:28:20;15.23;;;10.55;;
19651;SDS011;9974;52.146;14.668;2023-02-07T14:30:56;16.00;;;9.55;;
19651;SDS011;9974;52.146;14.668;2023-02-07T14:33:28;14.43;;;8.80;;
19651;SDS011;9974;52.146;14.668;2023-02-07T14:36:01;14.52;;;8.38;;
19651;SDS011;9974;52.146;14.668;2023-02-07T14:39:01;16.52;;;9.57;;
19651;SDS011;9974;52.146;14.668;2023-02-07T14:41:37;17.02;;;10.98;;
19651;SDS011;9974;52.146;14.668;2023-02-07T14:44:06;16.95;;;10.50;;
19651;SDS011;9974;52.146;14.668;2023-02-07T14:46:46;15.32;;;9.50;;
19651;SDS011;9974;52.146;14.668;2023-02-07T14:49:19;15.10;;;8.68;;
19651;SDS011;9974;52.146;14.668;2023-02-07T14:52:30;15.35;;;9.23;;
19651;SDS011;9974;52.146;14.668;2023-02-07T15:00:26;14.47;;;8.83;;
19651;SDS011;9974;52.146;14.668;2023-02-07T15:02:55;19.10;;;9.87;;
19651;SDS011;9974;52.146;14.668;2023-02-07T15:05:30;17.93;;;9.00;;
19651;SDS011;9974;52.146;14.668;2023-02-07T15:10:30;19.77;;;11.20;;
19651;SDS011;9974;52.146;14.668;2023-02-07T15:12:59;21.60;;;10.87;;
19651;SDS011;9974;52.146;14.668;2023-02-07T15:15:27;18.73;;;10.43;;
19651;SDS011;9974;52.146;14.668;2023-02-07T15:17:55;17.87;;;9.53;;
19651;SDS011;9974;52.146;14.668;2023-02-07T15:20:25;19.10;;;11.57;;
19651;SDS011;9974;52.146;14.668;2023-02-07T15:22:54;19.07;;;10.30;;
19651;SDS011;9974;52.146;14.668;2023-02-07T15:25:20;17.30;;;9.83;;
19651;SDS011;9974;52.146;14.668;2023-02-07T15:30:29;19.70;;;11.10;;
19651;SDS011;9974;52.146;14.668;2023-02-07T15:32:56;15.53;;;9.90;;
19651;SDS011;9974;52.146;14.668;2023-02-07T15:35:24;18.77;;;11.40;;
19651;SDS011;9974;52.146;14.668;2023-02-07T15:37:52;17.73;;;10.43;;
19651;SDS011;9974;52.146;14.668;2023-02-07T15:40:20;19.40;;;10.83;;
19651;SDS011;9974;52.146;14.668;2023-02-07T15:42:48;20.33;;;11.40;;
19651;SDS011;9974;52.146;14.668;2023-02-07T15:45:24;19.30;;;11.53;;
19651;SDS011;9974;52.146;14.668;2023-02-07T15:47:56;20.70;;;11.90;;
19651;SDS011;9974;52.146;14.668;2023-02-07T15:50:31;21.33;;;10.70;;
19651;SDS011;9974;52.146;14.668;2023-02-07T15:52:57;19.27;;;11.10;;
19651;SDS011;9974;52.146;14.668;2023-02-07T15:58:14;18.90;;;12.37;;
19651;SDS011;9974;52.146;14.668;2023-02-07T16:00:49;21.80;;;13.50;;
19651;SDS011;9974;52.146;14.668;2023-02-07T16:03:20;18.87;;;11.93;;
19651;SDS011;9974;52.146;14.668;2023-02-07T16:05:47;19.07;;;11.53;;
19651;SDS011;9974;52.146;14.668;2023-02-07T16:16:45;21.33;;;12.10;;
19651;SDS011;9974;52.146;14.668;2023-02-07T16:19:16;25.97;;;13.07;;
19651;SDS011;9974;52.146;14.668;2023-02-07T16:21:53;20.97;;;13.07;;
19651;SDS011;9974;52.146;14.668;2023-02-07T16:24:34;22.53;;;14.20;;
19651;SDS011;9974;52.146;14.668;2023-02-07T16:27:02;22.57;;;12.77;;
19651;SDS011;9974;52.146;14.668;2023-02-07T16:29:29;24.20;;;15.63;;
19651;SDS011;9974;52.146;14.668;2023-02-07T16:31:55;24.63;;;14.57;;
19651;SDS011;9974;52.146;14.668;2023-02-07T16:34:21;30.80;;;13.60;;
19651;SDS011;9974;52.146;14.668;2023-02-07T16:36:52;23.40;;;12.63;;